CFS weather

Coffs Harbour Airport
Coffs Harbour, New South Wales, Australia

Public forecast

Using degrees Celsius for public forecast. Weather courtesy of forecast.io.

METAR (pilot weather report)

Closest report is Grafton Airport, 34.0 nm (62.9 km) N. Retrieved 2019/02/20 12:00 UTC (1 hour ago):

YGFN 201200Z AUTO 14007KT 9000 // SCT045 OVC054 OVC072 23/21 Q1010

TAF (pilot weather forecast)

Closest forecast is Taree Airport, 99.1 nm (183.5 km) SSW. Retrieved 2019/02/20 14:03 UTC (0 seconds ago):

TAF YTRE 201256Z 2014/2102 VRB03KT 9999 -DZ BKN020 FM202100 19006KT 9999 -DZ BKN015 FM210100 14010KT 9999 -DZ BKN020 TEMPO 2014/2102 3000 DZ BKN010